Time;durP1;ratioP1;P1;durP2;ratioP2;P2;SDS_P1;SDS_P2;PMS_P1;PMS_P2;Temp;Humidity;BMP_temperature;BMP_pressure;BME280_temperature;BME280_humidity;BME280_pressure;Samples;Min_cycle;Max_cycle;Signal;HPM_P1;HPM_P2
2022/07/11 00:00:34;;;;;;;9.27;8.20;;;17.10;99.90;;;;;;5281989;28;20055;-77
2022/07/11 00:03:05;;;;;;;17.50;9.32;;;17.10;99.90;;;;;;5281480;28;20072;-69
2022/07/11 00:05:37;;;;;;;14.35;8.45;;;17.20;99.90;;;;;;5276208;28;20055;-78
2022/07/11 00:08:08;;;;;;;13.27;8.98;;;17.30;99.90;;;;;;5262860;28;20460;-69
2022/07/11 00:10:39;;;;;;;10.68;8.07;;;17.40;99.90;;;;;;5280999;28;20027;-76
2022/07/11 00:13:09;;;;;;;15.95;8.38;;;17.50;99.90;;;;;;5281185;28;20044;-75
2022/07/11 00:15:40;;;;;;;11.45;8.15;;;17.40;99.90;;;;;;5278857;28;20024;-71
2022/07/11 00:18:11;;;;;;;10.52;7.78;;;17.40;99.90;;;;;;5279679;28;20150;-74
2022/07/11 00:20:42;;;;;;;10.70;7.30;;;17.60;99.90;;;;;;5269867;28;20676;-70
2022/07/11 00:23:13;;;;;;;14.38;8.02;;;17.70;99.90;;;;;;5279573;28;20028;-75
2022/07/11 00:25:43;;;;;;;13.68;8.50;;;17.50;99.90;;;;;;5280373;28;20058;-70
2022/07/11 00:28:14;;;;;;;14.98;8.82;;;17.50;99.90;;;;;;5290823;28;20034;-73
2022/07/11 00:30:45;;;;;;;10.30;8.48;;;17.30;99.90;;;;;;5291284;28;20530;-70
2022/07/11 00:33:16;;;;;;;11.90;7.88;;;17.50;99.90;;;;;;5291289;28;20066;-70
2022/07/11 00:35:47;;;;;;;11.43;8.48;;;17.40;99.90;;;;;;5291192;28;20091;-75
2022/07/11 00:38:18;;;;;;;11.25;7.75;;;17.50;99.90;;;;;;5291255;28;20015;-72
2022/07/11 00:40:49;;;;;;;10.88;7.00;;;17.40;99.90;;;;;;5289529;28;20022;-75
2022/07/11 00:43:33;;;;;;;10.98;8.00;;;17.50;99.90;;;;;;5291167;28;20023;-71
2022/07/11 00:46:05;;;;;;;14.68;8.40;;;17.40;99.90;;;;;;5291072;28;20019;-70
2022/07/11 00:48:36;;;;;;;10.88;7.97;;;17.40;99.90;;;;;;5289223;28;20466;-72
2022/07/11 00:51:07;;;;;;;8.88;7.97;;;17.10;99.90;;;;;;5289077;28;20038;-70
2022/07/11 00:53:39;;;;;;;12.48;7.82;;;17.40;99.90;;;;;;5290103;28;20389;-71
2022/07/11 00:56:10;;;;;;;9.70;8.32;;;17.70;99.90;;;;;;5290960;28;20374;-78
2022/07/11 00:58:41;;;;;;;9.80;7.50;;;17.60;99.90;;;;;;5290972;28;20019;-71
2022/07/11 01:01:12;;;;;;;12.23;7.82;;;17.70;99.90;;;;;;5290740;28;20023;-77
2022/07/11 01:03:43;;;;;;;10.30;7.63;;;17.40;99.90;;;;;;5289562;28;20107;-71
2022/07/11 01:06:14;;;;;;;13.55;8.50;;;17.50;99.90;;;;;;5285989;28;20114;-73
2022/07/11 01:08:45;;;;;;;14.68;8.48;;;17.30;99.90;;;;;;5290581;28;20100;-76
2022/07/11 01:11:17;;;;;;;13.63;8.90;;;17.40;99.90;;;;;;5290607;28;20055;-75
2022/07/11 01:13:47;;;;;;;11.75;8.20;;;17.10;99.90;;;;;;5290475;28;20031;-75
2022/07/11 01:16:22;;;;;;;11.00;8.70;;;17.30;99.90;;;;;;5290502;28;20348;-74
2022/07/11 01:18:55;;;;;;;9.38;8.20;;;17.20;99.90;;;;;;5286972;28;20024;-75
2022/07/11 01:21:35;;;;;;;9.52;8.05;;;17.40;99.90;;;;;;5269293;28;20023;-75
2022/07/11 01:24:07;;;;;;;13.95;8.45;;;17.50;99.90;;;;;;5269506;28;20896;-74
2022/07/11 01:26:38;;;;;;;17.65;8.75;;;17.70;99.90;;;;;;5284296;28;20492;-75
2022/07/11 01:29:10;;;;;;;9.90;8.65;;;17.70;99.90;;;;;;5290315;28;20023;-74
2022/07/11 01:31:42;;;;;;;10.18;8.13;;;17.70;99.90;;;;;;5290020;28;20389;-68
2022/07/11 01:34:13;;;;;;;12.82;9.02;;;17.50;99.90;;;;;;5290258;28;20031;-73
2022/07/11 01:36:43;;;;;;;13.88;9.10;;;17.20;99.90;;;;;;5289462;28;20039;-75
2022/07/11 01:39:14;;;;;;;13.98;8.60;;;17.30;99.90;;;;;;5290204;28;20054;-75
2022/07/11 01:41:45;;;;;;;10.05;7.97;;;17.40;99.90;;;;;;5290153;28;20024;-72
2022/07/11 01:44:16;;;;;;;9.88;8.90;;;17.50;99.90;;;;;;5290321;28;20024;-73
2022/07/11 01:46:47;;;;;;;10.40;8.80;;;17.60;99.90;;;;;;5290221;28;20467;-70
2022/07/11 01:49:18;;;;;;;11.90;8.52;;;17.60;99.90;;;;;;5290086;28;20081;-74
2022/07/11 01:51:49;;;;;;;9.90;8.02;;;17.40;99.90;;;;;;5270584;28;20036;-74
2022/07/11 01:54:20;;;;;;;10.13;8.98;;;17.20;99.90;;;;;;5290109;28;20038;-74
2022/07/11 01:56:51;;;;;;;16.55;9.23;;;17.30;99.90;;;;;;5290092;28;20024;-72
2022/07/11 01:59:21;;;;;;;12.85;9.07;;;17.20;99.90;;;;;;5290042;28;20081;-70
2022/07/11 02:01:52;;;;;;;9.95;8.80;;;17.20;99.90;;;;;;5289786;28;20110;-70
2022/07/11 02:04:23;;;;;;;10.90;8.23;;;17.30;99.90;;;;;;5289876;28;20012;-74
2022/07/11 02:06:54;;;;;;;9.77;7.70;;;17.40;99.90;;;;;;5256231;28;20035;-76
2022/07/11 02:09:25;;;;;;;12.13;7.45;;;17.50;99.90;;;;;;5269079;28;20051;-74
2022/07/11 02:11:55;;;;;;;10.52;7.93;;;17.30;99.90;;;;;;5268657;28;20035;-75
2022/07/11 02:14:26;;;;;;;11.35;7.53;;;17.50;99.90;;;;;;5268762;28;20020;-75
2022/07/11 02:16:57;;;;;;;11.95;7.45;;;17.50;99.90;;;;;;5268776;28;20425;-69
2022/07/11 02:19:28;;;;;;;9.65;7.75;;;17.30;99.90;;;;;;5268736;28;20436;-75
2022/07/11 02:22:05;;;;;;;11.93;8.60;;;17.20;99.90;;;;;;5286873;28;20028;-75
2022/07/11 02:24:36;;;;;;;10.40;7.93;;;17.50;99.90;;;;;;5289954;28;20028;-73
2022/07/11 02:27:07;;;;;;;8.50;7.25;;;17.60;99.90;;;;;;5289732;28;20559;-75
2022/07/11 02:29:37;;;;;;;11.85;8.32;;;17.50;99.90;;;;;;5289619;28;20459;-74
2022/07/11 02:32:08;;;;;;;11.50;8.25;;;17.30;99.90;;;;;;5289542;28;20035;-75
2022/07/11 02:34:39;;;;;;;12.10;7.13;;;17.50;99.90;;;;;;5289032;28;20470;-69
2022/07/11 02:37:10;;;;;;;11.18;8.02;;;17.50;99.90;;;;;;5287357;28;20483;-76
2022/07/11 02:39:41;;;;;;;14.38;9.45;;;17.30;99.90;;;;;;5270409;28;20028;-69
2022/07/11 02:42:12;;;;;;;10.95;7.47;;;17.20;99.90;;;;;;5254352;28;20035;-70
2022/07/11 02:44:42;;;;;;;10.13;7.97;;;17.30;99.90;;;;;;5272416;28;20112;-69
2022/07/11 02:47:16;;;;;;;13.10;8.80;;;17.40;99.90;;;;;;5254451;28;20456;-69
2022/07/11 02:49:48;;;;;;;10.82;8.07;;;17.30;99.90;;;;;;5272244;28;20099;-70
2022/07/11 02:52:18;;;;;;;13.38;7.53;;;17.40;99.90;;;;;;5278292;28;20431;-69
2022/07/11 02:54:49;;;;;;;10.05;7.95;;;17.50;99.90;;;;;;5274774;28;20027;-70
2022/07/11 03:09:11;;;;;;;;;;;17.20;99.90;;;;;;5308862;27;20410;-72
2022/07/11 03:11:42;;;;;;;10.98;8.55;;;17.20;99.90;;;;;;5306229;27;19933;-72
2022/07/11 03:14:13;;;;;;;9.65;7.05;;;17.40;99.90;;;;;;5305010;27;20441;-73
2022/07/11 03:16:44;;;;;;;10.90;7.35;;;17.20;99.90;;;;;;5278982;27;20119;-72
2022/07/11 03:19:15;;;;;;;10.63;8.10;;;17.30;99.90;;;;;;5288175;28;20118;-72
2022/07/11 03:21:46;;;;;;;10.23;7.88;;;17.40;99.90;;;;;;5308304;27;20027;-72
2022/07/11 03:24:17;;;;;;;12.45;8.38;;;17.30;99.90;;;;;;5308092;27;20032;-72
2022/07/11 03:26:48;;;;;;;14.52;7.63;;;17.20;99.90;;;;;;5308244;27;20104;-73
2022/07/11 03:29:19;;;;;;;11.82;8.27;;;17.30;99.90;;;;;;5298689;27;20057;-76
2022/07/11 03:31:49;;;;;;;11.00;8.18;;;17.40;99.90;;;;;;5268062;28;20101;-72
2022/07/11 03:34:20;;;;;;;12.40;8.48;;;17.10;99.90;;;;;;5285597;28;20655;-74
2022/07/11 03:36:51;;;;;;;9.50;8.50;;;17.20;99.90;;;;;;5285343;28;20034;-74
2022/07/11 03:39:22;;;;;;;11.35;8.73;;;17.50;99.90;;;;;;5286540;28;20059;-72
2022/07/11 03:41:53;;;;;;;9.32;7.95;;;17.50;99.90;;;;;;5286756;28;20108;-70
2022/07/11 03:44:24;;;;;;;16.60;9.25;;;17.50;99.90;;;;;;5295166;28;20463;-71
2022/07/11 03:46:55;;;;;;;15.38;8.63;;;17.60;99.90;;;;;;5268011;28;20030;-72
2022/07/11 03:49:26;;;;;;;12.38;7.75;;;17.60;99.90;;;;;;5286402;28;20036;-72
2022/07/11 03:51:57;;;;;;;8.73;6.70;;;17.70;99.90;;;;;;5286392;28;20095;-75
2022/07/11 03:54:28;;;;;;;9.20;7.78;;;17.80;99.90;;;;;;5285675;28;20032;-73
2022/07/11 03:56:58;;;;;;;10.40;7.25;;;17.70;99.90;;;;;;5286409;28;20036;-75
2022/07/11 03:59:29;;;;;;;14.65;8.10;;;17.70;99.90;;;;;;5286111;28;20050;-74
2022/07/11 04:02:00;;;;;;;9.63;6.82;;;17.80;99.90;;;;;;5286337;28;20027;-71
2022/07/11 04:04:31;;;;;;;11.93;7.55;;;17.80;99.90;;;;;;5286217;28;20020;-72
2022/07/11 04:07:02;;;;;;;11.32;7.40;;;17.70;99.90;;;;;;5285944;28;20052;-74
2022/07/11 04:09:33;;;;;;;9.27;6.47;;;17.90;99.90;;;;;;5274633;28;20055;-71
2022/07/11 04:12:04;;;;;;;12.10;7.22;;;18.10;99.90;;;;;;5272095;28;20020;-73
2022/07/11 04:14:36;;;;;;;9.75;7.30;;;18.20;99.90;;;;;;5272011;28;20031;-73
2022/07/11 04:17:06;;;;;;;10.05;7.13;;;17.90;99.90;;;;;;5270580;28;20046;-73
2022/07/11 04:19:38;;;;;;;12.68;7.32;;;18.00;99.90;;;;;;5253726;28;20016;-73
2022/07/11 04:22:09;;;;;;;10.38;6.53;;;18.20;99.90;;;;;;5252871;28;20035;-73
2022/07/11 04:24:40;;;;;;;13.10;7.30;;;18.00;99.90;;;;;;5271859;28;20013;-73
2022/07/11 04:27:11;;;;;;;10.57;7.15;;;17.80;99.90;;;;;;5271412;28;20028;-75
2022/07/11 04:29:41;;;;;;;13.60;7.65;;;17.80;99.90;;;;;;5271453;28;20028;-74
2022/07/11 04:32:12;;;;;;;10.38;7.07;;;18.00;99.90;;;;;;5271627;28;20016;-72
2022/07/11 04:34:44;;;;;;;10.77;6.95;;;18.00;99.90;;;;;;5271284;28;20103;-74
2022/07/11 04:37:14;;;;;;;10.88;6.43;;;18.00;99.90;;;;;;5270042;28;20414;-73
2022/07/11 04:39:46;;;;;;;7.93;7.07;;;18.10;99.90;;;;;;5274877;28;20028;-74
2022/07/11 04:42:17;;;;;;;15.35;6.75;;;18.20;99.90;;;;;;5271264;28;20099;-73
2022/07/11 04:44:48;;;;;;;9.70;6.95;;;18.00;99.90;;;;;;5271361;28;20099;-73
2022/07/11 04:47:19;;;;;;;9.88;6.97;;;18.00;99.90;;;;;;5271075;28;20024;-72
2022/07/11 04:49:51;;;;;;;9.85;6.78;;;18.10;99.90;;;;;;5270517;28;20012;-73
2022/07/11 04:52:26;;;;;;;11.40;6.88;;;18.20;99.90;;;;;;5243711;28;20028;-73
2022/07/11 04:54:57;;;;;;;11.40;6.63;;;18.00;99.90;;;;;;5253029;28;20016;-73
2022/07/11 04:57:28;;;;;;;9.45;7.18;;;18.10;99.90;;;;;;5270501;28;20036;-73
2022/07/11 05:00:00;;;;;;;9.02;7.28;;;18.00;99.90;;;;;;5270711;28;20016;-73
2022/07/11 05:02:31;;;;;;;12.88;6.85;;;18.20;99.90;;;;;;5250823;28;20475;-73
2022/07/11 05:05:02;;;;;;;8.00;6.45;;;18.20;99.90;;;;;;5270749;28;20032;-73
2022/07/11 05:07:32;;;;;;;12.60;7.20;;;18.30;99.90;;;;;;5270222;28;20383;-74
2022/07/11 05:10:04;;;;;;;9.77;6.68;;;18.40;99.90;;;;;;5270672;28;20055;-73
2022/07/11 05:12:35;;;;;;;17.92;6.68;;;18.40;99.90;;;;;;5271033;28;20383;-73
2022/07/11 05:15:07;;;;;;;8.35;6.50;;;18.20;99.90;;;;;;5270331;28;20020;-73
2022/07/11 05:17:38;;;;;;;11.98;6.15;;;18.40;99.90;;;;;;5269940;28;20431;-73
2022/07/11 05:20:09;;;;;;;7.68;6.18;;;18.60;99.90;;;;;;5269568;28;20024;-73
2022/07/11 05:22:40;;;;;;;8.48;6.45;;;18.80;99.90;;;;;;5270729;28;20055;-73
2022/07/11 05:25:11;;;;;;;10.18;6.05;;;18.90;99.90;;;;;;5270050;28;20062;-74
2022/07/11 05:27:42;;;;;;;12.82;5.43;;;18.90;99.90;;;;;;5270506;28;20028;-73
2022/07/11 05:30:13;;;;;;;9.82;5.20;;;19.00;99.90;;;;;;5252144;28;20024;-72
2022/07/11 05:32:43;;;;;;;8.48;5.57;;;19.20;99.90;;;;;;5270523;28;20020;-73
2022/07/11 05:35:14;;;;;;;9.73;5.40;;;19.20;99.90;;;;;;5270288;28;20512;-72
2022/07/11 05:37:45;;;;;;;7.97;5.60;;;19.30;99.90;;;;;;5252027;28;20507;-73
2022/07/11 05:40:16;;;;;;;5.85;5.25;;;19.70;99.90;;;;;;5284756;28;20024;-72
2022/07/11 05:42:47;;;;;;;4.63;4.20;;;19.60;99.90;;;;;;5270213;28;20048;-72
2022/07/11 05:45:18;;;;;;;5.53;5.00;;;19.80;99.90;;;;;;5269843;28;20064;-72
2022/07/11 05:47:49;;;;;;;7.10;3.60;;;20.20;99.90;;;;;;5266179;28;20032;-72
2022/07/11 05:50:20;;;;;;;9.10;3.85;;;20.70;99.90;;;;;;5269139;28;20106;-73
2022/07/11 05:52:50;;;;;;;5.70;3.40;;;20.70;99.90;;;;;;5269434;28;20032;-73
2022/07/11 05:55:22;;;;;;;5.13;2.63;;;21.00;99.90;;;;;;5251597;28;20372;-73
2022/07/11 05:57:53;;;;;;;8.02;3.30;;;21.40;99.90;;;;;;5269523;28;20061;-72
2022/07/11 06:00:25;;;;;;;4.60;2.78;;;21.60;99.90;;;;;;5269534;28;20024;-73
2022/07/11 06:14:51;;;;;;;3.85;2.28;;;21.50;99.90;;;;;;5303373;27;20456;-71
2022/07/11 06:17:22;;;;;;;4.00;2.50;;;22.10;99.90;;;;;;5286945;28;20024;-70
2022/07/11 06:19:53;;;;;;;3.88;2.15;;;22.20;99.90;;;;;;5273800;28;20036;-72
2022/07/11 06:22:24;;;;;;;5.00;2.20;;;22.20;99.90;;;;;;5265549;28;20036;-69
2022/07/11 06:24:54;;;;;;;4.50;2.67;;;22.50;99.90;;;;;;5279841;28;20478;-69
2022/07/11 06:27:25;;;;;;;3.40;2.60;;;22.60;99.90;;;;;;5287195;28;20027;-73
2022/07/11 06:29:56;;;;;;;3.08;2.38;;;22.50;99.90;;;;;;5286900;28;20073;-71
2022/07/11 06:32:28;;;;;;;15.82;12.20;;;22.30;99.90;;;;;;5283109;28;20072;-68
2022/07/11 06:34:59;;;;;;;5.45;3.33;;;22.30;99.90;;;;;;5277043;28;20022;-68
2022/07/11 06:37:30;;;;;;;7.55;3.50;;;22.10;99.90;;;;;;5286151;28;20050;-69
2022/07/11 06:40:01;;;;;;;3.55;2.47;;;22.70;99.90;;;;;;5286214;28;20023;-72
2022/07/11 06:42:32;;;;;;;8.65;2.78;;;22.90;99.90;;;;;;5282654;28;20032;-72
2022/07/11 06:45:03;;;;;;;9.23;2.20;;;23.20;99.90;;;;;;5285602;28;20047;-72
2022/07/11 06:47:34;;;;;;;3.50;2.45;;;23.40;99.90;;;;;;5285122;28;20108;-72
2022/07/11 06:50:05;;;;;;;5.05;2.10;;;23.60;99.90;;;;;;5285993;28;20059;-72
2022/07/11 06:52:36;;;;;;;4.20;2.55;;;23.00;99.90;;;;;;5285467;28;20107;-71
2022/07/11 06:55:08;;;;;;;3.88;2.60;;;23.20;99.90;;;;;;5285847;28;20391;-74
2022/07/11 06:57:38;;;;;;;3.10;2.70;;;23.60;99.90;;;;;;5286168;28;20028;-69
2022/07/11 07:00:11;;;;;;;3.40;2.45;;;23.50;99.90;;;;;;5285694;28;20040;-69
2022/07/11 07:02:42;;;;;;;4.68;3.00;;;23.10;99.90;;;;;;5275461;28;20106;-68
2022/07/11 07:05:13;;;;;;;6.30;3.13;;;23.00;99.90;;;;;;5283080;28;20045;-72
2022/07/11 07:07:44;;;;;;;4.93;2.63;;;23.10;99.90;;;;;;5282599;28;20028;-71
2022/07/11 07:10:14;;;;;;;4.97;2.65;;;22.90;99.90;;;;;;5285072;28;20023;-68
2022/07/11 07:12:45;;;;;;;14.30;3.53;;;23.20;99.90;;;;;;5281737;28;20137;-71
2022/07/11 07:15:16;;;;;;;5.47;2.30;;;23.60;99.90;;;;;;5272308;28;20534;-69
2022/07/11 08:15:47;;;;;;;6.32;2.40;;;23.80;99.90;;;;;;5245356;28;20423;-73
2022/07/11 08:18:18;;;;;;;5.97;2.80;;;23.90;99.90;;;;;;5245151;28;20091;-73
2022/07/11 08:20:49;;;;;;;4.88;2.72;;;24.20;99.90;;;;;;5244969;28;20021;-71
2022/07/11 08:23:20;;;;;;;18.65;12.68;;;24.10;99.90;;;;;;5237287;28;20079;-72
2022/07/11 08:25:51;;;;;;;8.65;6.88;;;24.50;99.90;;;;;;5224186;28;20035;-74
2022/07/11 08:28:22;;;;;;;5.03;2.45;;;24.30;99.90;;;;;;5224386;28;20129;-73
2022/07/11 08:30:54;;;;;;;4.18;2.60;;;24.10;99.90;;;;;;5224137;28;20378;-72
2022/07/11 08:33:25;;;;;;;4.43;2.30;;;24.00;99.90;;;;;;5224136;28;20035;-70
2022/07/11 08:35:56;;;;;;;5.35;2.88;;;24.20;99.90;;;;;;5224116;28;20021;-68
2022/07/11 08:38:27;;;;;;;2.90;2.42;;;24.20;99.90;;;;;;5224173;28;20029;-67
2022/07/11 08:40:57;;;;;;;5.57;3.13;;;24.20;99.90;;;;;;5222747;28;20024;-69
2022/07/11 08:43:29;;;;;;;6.32;2.75;;;24.30;99.90;;;;;;5224059;28;20388;-72
2022/07/11 08:46:01;;;;;;;3.83;2.53;;;24.30;99.90;;;;;;5223978;28;20036;-72
2022/07/11 08:48:33;;;;;;;8.77;2.72;;;24.70;99.90;;;;;;5223954;28;20033;-72
2022/07/11 08:51:08;;;;;;;5.75;2.33;;;25.00;99.90;;;;;;5223765;28;20044;-71
2022/07/11 08:53:49;;;;;;;4.22;2.97;;;25.30;99.90;;;;;;5223727;28;20029;-72
2022/07/11 08:56:22;;;;;;;3.50;2.80;;;25.30;99.90;;;;;;5223724;28;20071;-72
2022/07/11 08:58:55;;;;;;;5.60;2.40;;;24.90;99.90;;;;;;5223344;28;20032;-71
2022/07/11 09:01:31;;;;;;;9.68;5.50;;;24.60;99.90;;;;;;5223464;28;20429;-72
2022/07/11 09:04:02;;;;;;;3.67;2.42;;;25.10;99.90;;;;;;5242226;28;20440;-73
2022/07/11 09:06:33;;;;;;;3.35;2.10;;;25.40;99.90;;;;;;5244158;28;20028;-71
2022/07/11 09:09:04;;;;;;;2.55;2.17;;;25.30;99.90;;;;;;5241501;28;20033;-71
2022/07/11 09:11:53;;;;;;;3.13;1.90;;;25.50;99.90;;;;;;5230159;28;20013;-69
2022/07/11 09:14:25;;;;;;;4.70;1.90;;;25.60;99.90;;;;;;5229858;28;20519;-68
2022/07/11 09:16:58;;;;;;;5.53;2.00;;;25.40;99.90;;;;;;5221473;28;20112;-69
2022/07/11 09:19:32;;;;;;;2.28;2.08;;;26.00;99.90;;;;;;5209288;28;20021;-68
2022/07/11 09:27:48;;;;;;;4.22;2.08;;;26.10;99.90;;;;;;5209509;28;20091;-73
2022/07/11 09:30:22;;;;;;;3.00;1.80;;;26.10;99.90;;;;;;5209271;28;20060;-69
2022/07/11 09:33:00;;;;;;;2.53;1.85;;;26.20;99.90;;;;;;5209375;28;20030;-68
2022/07/11 09:35:41;;;;;;;5.00;1.67;;;25.90;99.90;;;;;;5189641;28;20025;-68
2022/07/11 09:38:16;;;;;;;4.30;2.00;;;26.00;99.90;;;;;;5205217;28;20049;-68
2022/07/11 09:40:48;;;;;;;2.53;1.90;;;26.30;99.90;;;;;;5203340;28;20454;-72
2022/07/11 09:43:26;;;;;;;6.18;3.28;;;26.00;99.90;;;;;;5197266;28;20034;-72
2022/07/11 09:46:05;;;;;;;3.50;3.03;;;26.30;99.90;;;;;;5206932;28;20037;-73
2022/07/11 09:48:36;;;;;;;6.45;1.70;;;26.00;99.90;;;;;;5205215;28;20045;-68
2022/07/11 09:51:07;;;;;;;2.20;1.60;;;25.90;99.90;;;;;;5206356;28;20033;-69
2022/07/11 09:53:56;;;;;;;4.22;3.30;;;26.30;99.90;;;;;;5203496;28;20022;-72
2022/07/11 09:56:34;;;;;;;6.72;3.35;;;26.30;99.90;;;;;;5208297;28;20047;-69
2022/07/11 09:59:08;;;;;;;2.42;1.73;;;25.80;99.90;;;;;;5208583;28;20104;-68
2022/07/11 10:01:39;;;;;;;3.33;1.98;;;26.00;99.90;;;;;;5207043;28;20069;-68
2022/07/11 10:04:11;;;;;;;3.15;2.10;;;26.20;99.90;;;;;;5208164;28;20040;-68
2022/07/11 10:06:42;;;;;;;8.13;1.67;;;26.10;99.90;;;;;;5207842;28;20022;-69
2022/07/11 10:09:13;;;;;;;5.60;2.28;;;26.10;99.90;;;;;;5205808;28;20043;-69
2022/07/11 10:11:43;;;;;;;2.33;1.80;;;26.20;99.90;;;;;;5204602;28;20120;-71
2022/07/11 10:14:15;;;;;;;4.00;1.70;;;26.10;99.90;;;;;;5204551;28;20522;-70
2022/07/11 10:17:07;;;;;;;4.32;2.63;;;26.20;99.90;;;;;;5208328;28;20032;-69
2022/07/11 10:19:52;;;;;;;3.03;1.58;;;26.60;99.90;;;;;;5208105;28;20096;-68
2022/07/11 10:22:29;;;;;;;4.22;2.05;;;26.30;99.90;;;;;;5206536;28;20475;-67
2022/07/11 10:25:21;;;;;;;3.63;1.50;;;26.30;99.90;;;;;;5206515;28;20029;-75
2022/07/11 10:28:14;;;;;;;2.03;1.38;;;26.50;99.90;;;;;;5196387;28;20056;-72
2022/07/11 10:30:55;;;;;;;3.30;1.63;;;26.30;99.90;;;;;;5206156;28;20022;-71
2022/07/11 10:33:30;;;;;;;2.25;1.50;;;26.80;99.90;;;;;;5189297;28;20057;-69
2022/07/11 10:36:01;;;;;;;3.47;1.60;;;26.80;99.90;;;;;;5204736;28;20358;-70
2022/07/11 10:38:31;;;;;;;5.57;1.60;;;26.80;99.90;;;;;;5207363;28;20029;-68
2022/07/11 10:41:02;;;;;;;2.17;1.45;;;26.30;99.90;;;;;;5205866;28;20562;-67
2022/07/11 10:43:39;;;;;;;4.05;1.67;;;26.60;99.90;;;;;;5207789;28;20030;-74
2022/07/11 10:46:19;;;;;;;2.42;1.70;;;27.20;99.90;;;;;;5207290;28;20457;-72
2022/07/11 10:49:20;;;;;;;12.38;8.95;;;27.10;99.90;;;;;;5207698;28;20037;-68
2022/07/11 10:52:05;;;;;;;3.03;1.35;;;27.10;99.90;;;;;;5207946;28;20404;-73
2022/07/11 10:54:41;;;;;;;9.98;1.48;;;26.60;99.90;;;;;;5206682;28;20614;-70
2022/07/11 10:57:49;;;;;;;2.17;1.10;;;26.50;99.90;;;;;;5205048;28;20124;-68
2022/07/11 11:00:21;;;;;;;3.45;1.33;;;26.50;99.90;;;;;;5202138;28;20033;-73
2022/07/11 11:03:02;;;;;;;1.67;0.82;;;26.60;99.90;;;;;;5207664;28;20017;-68
2022/07/11 11:05:44;;;;;;;3.45;1.20;;;27.30;99.90;;;;;;5207402;28;20026;-73
2022/07/11 11:08:36;;;;;;;4.50;1.27;;;27.10;99.90;;;;;;5206299;28;20041;-73
2022/07/11 11:11:19;;;;;;;2.40;1.27;;;27.20;99.90;;;;;;5202463;28;20442;-72
2022/07/11 11:41:25;;;;;;;4.55;1.20;;;27.10;99.90;;;;;;5292796;27;20395;-68
2022/07/11 11:44:00;;;;;;;3.03;1.27;;;27.40;99.90;;;;;;5287349;28;20421;-74
2022/07/11 11:46:36;;;;;;;2.92;1.23;;;27.60;99.90;;;;;;5286954;28;20032;-73
2022/07/11 11:49:07;;;;;;;2.35;1.30;;;27.60;99.90;;;;;;5287183;28;20360;-74
2022/07/11 11:51:39;;;;;;;2.13;1.25;;;27.60;99.90;;;;;;5285964;28;20081;-74
2022/07/11 11:54:10;;;;;;;1.88;1.23;;;27.60;99.90;;;;;;5287021;28;20028;-75
2022/07/11 11:56:41;;;;;;;3.10;1.15;;;26.60;99.90;;;;;;5286999;28;20073;-76
2022/07/11 11:59:12;;;;;;;3.05;1.30;;;27.20;99.90;;;;;;5286217;28;20028;-76
2022/07/11 12:01:48;;;;;;;1.95;1.20;;;27.20;99.90;;;;;;5285574;28;20034;-75
2022/07/11 12:04:19;;;;;;;2.75;1.05;;;27.50;99.90;;;;;;5286272;28;20024;-75
2022/07/11 12:06:50;;;;;;;3.05;1.50;;;27.40;99.90;;;;;;5285652;28;20027;-74
2022/07/11 12:09:46;;;;;;;2.00;1.35;;;27.00;99.90;;;;;;5286557;28;20139;-75
2022/07/11 12:15:34;;;;;;;3.63;1.27;;;27.10;99.90;;;;;;5287015;28;20055;-73
2022/07/11 12:18:05;;;;;;;1.65;1.15;;;27.20;99.90;;;;;;5286470;28;20027;-74
2022/07/11 12:20:42;;;;;;;3.75;1.20;;;26.90;99.90;;;;;;5286540;28;20325;-74
2022/07/11 12:23:17;;;;;;;3.40;1.52;;;27.00;99.90;;;;;;5286521;28;20020;-74
2022/07/11 12:25:49;;;;;;;4.30;1.50;;;26.80;99.90;;;;;;5286091;28;20498;-76
2022/07/11 12:28:20;;;;;;;2.22;1.20;;;26.80;99.90;;;;;;5286060;28;20054;-75
2022/07/11 12:30:56;;;;;;;2.25;1.10;;;26.50;99.90;;;;;;5285587;28;20036;-74
2022/07/11 12:33:26;;;;;;;4.25;1.60;;;27.10;99.90;;;;;;5286229;28;20455;-76
2022/07/11 12:35:59;;;;;;;2.33;1.10;;;27.60;99.90;;;;;;5285963;28;20032;-76
2022/07/11 12:38:53;;;;;;;3.17;1.13;;;26.60;99.90;;;;;;5285970;28;20024;-75
2022/07/11 12:41:24;;;;;;;2.97;1.45;;;26.60;99.90;;;;;;5276264;28;20040;-75
2022/07/11 12:46:47;;;;;;;3.28;1.30;;;27.20;99.90;;;;;;5272032;28;20024;-77
2022/07/11 12:49:18;;;;;;;3.63;1.50;;;27.50;99.90;;;;;;5271824;28;20044;-77
2022/07/11 12:51:53;;;;;;;5.53;1.45;;;27.90;99.90;;;;;;5271786;28;20363;-76
2022/07/11 12:54:31;;;;;;;5.75;1.55;;;27.30;99.90;;;;;;5270585;28;20500;-77
2022/07/11 12:57:02;;;;;;;1.92;1.30;;;27.50;99.90;;;;;;5271680;28;20061;-76
2022/07/11 12:59:35;;;;;;;2.25;1.20;;;27.00;99.90;;;;;;5271822;28;20024;-76
2022/07/11 13:02:07;;;;;;;2.92;1.20;;;27.00;99.90;;;;;;5270218;28;20115;-76
2022/07/11 13:04:39;;;;;;;1.25;1.02;;;27.40;99.90;;;;;;5271703;28;20329;-75
2022/07/11 13:10:24;;;;;;;4.03;1.50;;;27.60;99.90;;;;;;5270975;28;20124;-76
2022/07/11 13:12:55;;;;;;;4.38;1.63;;;26.40;99.90;;;;;;5271415;28;20093;-75
2022/07/11 13:15:27;;;;;;;3.65;1.10;;;26.80;99.90;;;;;;5271172;28;20530;-76
2022/07/11 13:17:57;;;;;;;4.30;1.42;;;26.90;99.90;;;;;;5271625;28;20103;-74
2022/07/11 13:20:28;;;;;;;4.40;2.20;;;27.10;99.90;;;;;;5271364;28;20111;-74
2022/07/11 13:22:59;;;;;;;3.17;1.45;;;27.20;99.90;;;;;;5271262;28;20108;-74
2022/07/11 13:25:30;;;;;;;8.77;6.03;;;26.50;99.90;;;;;;5270961;28;20383;-75
2022/07/11 13:28:01;;;;;;;2.08;1.35;;;26.90;99.90;;;;;;5271253;28;20024;-73
2022/07/11 13:30:32;;;;;;;4.25;1.40;;;26.50;99.90;;;;;;5270722;28;20040;-74
2022/07/11 13:33:03;;;;;;;9.55;4.55;;;26.30;99.90;;;;;;5270602;28;20051;-75
2022/07/11 13:35:34;;;;;;;4.70;2.63;;;26.70;99.90;;;;;;5270885;28;20449;-74
2022/07/11 13:38:05;;;;;;;3.67;3.00;;;27.00;99.90;;;;;;5270927;28;20020;-75
2022/07/11 13:40:36;;;;;;;4.20;1.30;;;27.10;99.90;;;;;;5270776;28;20127;-74
2022/07/11 13:43:06;;;;;;;1.77;1.30;;;27.20;99.90;;;;;;5271201;28;20435;-74
2022/07/11 13:45:39;;;;;;;3.28;1.40;;;26.90;99.90;;;;;;5270907;28;20011;-75
2022/07/11 13:48:11;;;;;;;2.50;1.20;;;27.10;99.90;;;;;;5270503;28;20103;-74
2022/07/11 13:50:42;;;;;;;2.53;1.40;;;26.80;99.90;;;;;;5270583;28;20063;-74
2022/07/11 13:53:12;;;;;;;3.22;1.27;;;26.90;99.90;;;;;;5269519;28;20024;-74
2022/07/11 13:55:43;;;;;;;3.05;1.30;;;26.80;99.90;;;;;;5270575;28;20047;-74
2022/07/11 13:58:25;;;;;;;4.93;1.20;;;26.90;99.90;;;;;;5271041;28;20028;-74
2022/07/11 14:00:56;;;;;;;5.47;1.25;;;27.50;99.90;;;;;;5270263;28;20024;-74
2022/07/11 14:03:28;;;;;;;1.45;1.25;;;27.00;99.90;;;;;;5270553;28;20031;-75
2022/07/11 14:05:59;;;;;;;4.60;1.15;;;27.00;99.90;;;;;;5270550;28;20071;-74
2022/07/11 14:08:32;;;;;;;4.40;1.60;;;26.00;99.90;;;;;;5270172;28;20039;-75
2022/07/11 14:11:02;;;;;;;3.28;1.40;;;26.20;99.90;;;;;;5251510;28;20043;-75
2022/07/11 14:13:34;;;;;;;1.33;1.00;;;26.60;99.90;;;;;;5263602;28;20032;-76
2022/07/11 14:16:06;;;;;;;3.72;1.45;;;26.30;99.90;;;;;;5268228;28;20372;-76
2022/07/11 14:18:37;;;;;;;2.83;1.17;;;26.50;99.90;;;;;;5268194;28;20454;-74
2022/07/11 14:21:08;;;;;;;2.47;1.52;;;26.90;99.90;;;;;;5268348;28;20052;-74
2022/07/11 14:23:39;;;;;;;9.40;1.63;;;26.50;99.90;;;;;;5268095;28;20027;-74
2022/07/11 14:26:10;;;;;;;1.90;1.27;;;27.20;99.90;;;;;;5268048;28;20368;-74
2022/07/11 14:28:41;;;;;;;2.25;1.38;;;26.70;99.90;;;;;;5267806;28;20036;-75
2022/07/11 14:31:12;;;;;;;2.50;1.27;;;26.60;99.90;;;;;;5267801;28;20028;-75
2022/07/11 14:33:43;;;;;;;2.03;1.10;;;27.20;99.90;;;;;;5267903;28;20020;-75
2022/07/11 14:36:14;;;;;;;1.67;1.38;;;27.00;99.90;;;;;;5268384;28;20031;-74
2022/07/11 14:38:45;;;;;;;2.50;1.40;;;26.60;99.90;;;;;;5267646;28;20116;-74
2022/07/11 14:41:16;;;;;;;3.47;1.42;;;26.70;99.90;;;;;;5268581;28;20096;-74
2022/07/11 14:43:48;;;;;;;2.75;1.38;;;27.10;99.90;;;;;;5267754;28;20063;-74
2022/07/11 14:46:19;;;;;;;8.70;1.48;;;26.70;99.90;;;;;;5268686;28;20047;-74
2022/07/11 14:48:50;;;;;;;5.13;1.48;;;26.50;99.90;;;;;;5268259;28;20040;-75
2022/07/11 14:51:21;;;;;;;2.63;1.33;;;26.90;99.90;;;;;;5268038;28;20035;-75
2022/07/11 14:53:51;;;;;;;1.92;1.33;;;27.00;99.90;;;;;;5268416;28;20685;-75
2022/07/11 14:56:22;;;;;;;6.03;1.15;;;26.50;99.90;;;;;;5268533;28;20031;-75
2022/07/11 14:58:53;;;;;;;3.65;1.10;;;25.60;99.90;;;;;;5248284;28;20104;-75
2022/07/11 15:01:24;;;;;;;2.03;1.20;;;25.60;99.90;;;;;;5248582;28;20021;-75
2022/07/11 15:03:55;;;;;;;4.03;1.20;;;26.00;99.90;;;;;;5248056;28;20032;-75
2022/07/11 15:14:54;;;;;;;6.05;1.33;;;26.00;99.90;;;;;;5248356;28;20032;-75
2022/07/11 15:17:25;;;;;;;4.78;1.50;;;26.10;99.90;;;;;;5259156;28;20052;-75
2022/07/11 15:19:56;;;;;;;3.15;1.40;;;26.10;99.90;;;;;;5269203;28;20451;-76
2022/07/11 15:22:27;;;;;;;4.30;2.10;;;26.10;99.90;;;;;;5269203;28;20099;-76